createdAt,value
2019-01-12T00:00:19.272Z,5.93
2019-01-12T00:02:23.441Z,4.47
2019-01-12T00:04:27.327Z,7.27
2019-01-12T00:06:31.171Z,11.27
2019-01-12T00:08:35.193Z,3.27
2019-01-12T00:10:39.074Z,9.23
2019-01-12T00:12:42.938Z,5.77
2019-01-12T00:14:46.816Z,6.03
2019-01-12T00:16:50.735Z,7.47
2019-01-12T00:18:54.642Z,10.70
2019-01-12T00:20:58.538Z,7.87
2019-01-12T00:23:02.572Z,9.70
2019-01-12T00:25:07.959Z,8.63
2019-01-12T00:27:11.841Z,12.30
2019-01-12T00:29:15.746Z,8.97
2019-01-12T00:31:19.618Z,13.03
2019-01-12T00:33:23.463Z,12.27
2019-01-12T00:35:27.377Z,12.00
2019-01-12T00:37:31.282Z,12.37
2019-01-12T00:39:35.122Z,16.53
2019-01-12T00:41:39.030Z,12.00
2019-01-12T00:43:42.920Z,14.87
2019-01-12T00:45:46.827Z,9.20
2019-01-12T00:47:50.722Z,13.63
2019-01-12T00:49:54.614Z,11.20
2019-01-12T00:51:58.540Z,13.03
2019-01-12T00:54:02.445Z,11.90
2019-01-12T00:56:06.298Z,11.33
2019-01-12T00:58:10.199Z,13.63
2019-01-12T01:00:19.518Z,9.53
2019-01-12T01:02:23.397Z,12.63
2019-01-12T01:04:27.310Z,16.73
2019-01-12T01:06:31.179Z,11.10
2019-01-12T01:08:35.074Z,16.53
2019-01-12T01:10:38.958Z,15.43
2019-01-12T01:12:42.806Z,13.07
2019-01-12T01:14:46.672Z,9.80
2019-01-12T01:16:50.548Z,12.00
2019-01-12T01:18:54.461Z,8.70
2019-01-12T01:20:58.370Z,11.57
2019-01-12T01:23:02.215Z,7.60
2019-01-12T01:25:08.065Z,9.45
2019-01-12T01:27:12.022Z,7.33
2019-01-12T01:29:15.883Z,9.00
2019-01-12T01:31:19.795Z,10.00
2019-01-12T01:33:27.964Z,12.40
2019-01-12T01:35:29.186Z,9.17
2019-01-12T01:37:33.097Z,9.00
2019-01-12T01:39:36.970Z,5.30
2019-01-12T01:41:40.830Z,12.10
2019-01-12T01:43:44.676Z,11.50
2019-01-12T01:45:48.610Z,12.07
2019-01-12T01:47:52.509Z,11.63
2019-01-12T01:49:56.375Z,7.57
2019-01-12T01:52:00.259Z,9.77
2019-01-12T01:54:04.129Z,10.80
2019-01-12T01:56:07.998Z,11.17
2019-01-12T01:58:11.890Z,8.67
2019-01-12T02:00:16.981Z,12.53
2019-01-12T02:02:20.846Z,11.30
2019-01-12T02:04:24.830Z,8.57
2019-01-12T02:06:28.747Z,11.90
2019-01-12T02:08:32.710Z,8.17
2019-01-12T02:10:36.692Z,12.73
2019-01-12T02:12:40.558Z,7.90
2019-01-12T02:14:44.435Z,7.20
2019-01-12T02:16:48.370Z,10.07
2019-01-12T02:18:52.254Z,6.63
2019-01-12T02:20:56.081Z,8.50
2019-01-12T02:22:59.962Z,10.60
2019-01-12T02:25:04.855Z,10.03
2019-01-12T02:27:08.769Z,8.77
2019-01-12T02:29:12.641Z,10.07
2019-01-12T02:31:16.527Z,6.13
2019-01-12T02:33:20.417Z,8.10
2019-01-12T02:35:24.562Z,3.40
2019-01-12T02:37:28.419Z,11.50
2019-01-12T02:39:32.431Z,6.80
2019-01-12T02:41:36.297Z,6.93
2019-01-12T02:43:40.158Z,10.90
2019-01-12T02:45:44.041Z,7.97
2019-01-12T02:47:47.911Z,9.37
2019-01-12T02:49:51.748Z,5.23
2019-01-12T02:51:55.789Z,4.97
2019-01-12T02:53:59.706Z,9.33
2019-01-12T02:56:03.571Z,4.13
2019-01-12T02:58:07.465Z,7.23
2019-01-12T03:00:16.558Z,5.33
2019-01-12T03:02:20.405Z,6.77
2019-01-12T03:04:24.307Z,3.43
2019-01-12T03:06:28.171Z,7.27
2019-01-12T03:08:32.104Z,6.60
2019-01-12T03:10:35.953Z,5.93
2019-01-12T03:12:39.815Z,3.00
2019-01-12T03:14:43.759Z,6.87
2019-01-12T03:16:47.650Z,4.57
2019-01-12T03:18:51.662Z,6.73
2019-01-12T03:20:55.526Z,7.37
2019-01-12T03:22:59.417Z,7.13
2019-01-12T03:25:03.325Z,7.40
2019-01-12T03:27:07.170Z,5.47
2019-01-12T03:29:11.193Z,7.10
2019-01-12T03:31:15.077Z,9.17
2019-01-12T03:33:18.957Z,6.47
2019-01-12T03:35:22.898Z,5.77
2019-01-12T03:37:26.989Z,9.87
2019-01-12T03:39:31.054Z,5.43
2019-01-12T03:41:35.159Z,11.40
2019-01-12T03:43:39.120Z,5.90
2019-01-12T03:45:43.264Z,6.67
2019-01-12T03:47:47.549Z,5.37
2019-01-12T03:49:51.523Z,3.80
2019-01-12T03:51:55.789Z,9.50
2019-01-12T03:54:00.004Z,11.10
2019-01-12T03:56:04.039Z,7.83
2019-01-12T03:58:08.532Z,10.33
2019-01-12T04:00:15.475Z,3.30
2019-01-12T04:02:19.419Z,7.43
2019-01-12T04:04:23.243Z,8.63
2019-01-12T04:06:27.201Z,8.37
2019-01-12T04:08:31.050Z,11.50
2019-01-12T04:10:35.060Z,10.63
2019-01-12T04:12:38.904Z,5.77
2019-01-12T04:14:42.798Z,6.67
2019-01-12T04:16:46.726Z,6.13
2019-01-12T04:18:50.621Z,9.33
2019-01-12T04:20:54.471Z,5.13
2019-01-12T04:22:58.351Z,5.50
2019-01-12T04:25:02.229Z,7.83
2019-01-12T04:27:06.062Z,6.70
2019-01-12T04:29:09.941Z,12.83
2019-01-12T04:31:13.819Z,7.37
2019-01-12T04:33:17.753Z,7.07
2019-01-12T04:35:21.667Z,7.97
2019-01-12T04:37:25.560Z,5.77
2019-01-12T04:39:29.421Z,5.73
2019-01-12T04:41:33.326Z,7.60
2019-01-12T04:43:37.170Z,5.73
2019-01-12T04:45:41.090Z,8.63
2019-01-12T04:47:45.019Z,5.53
2019-01-12T04:49:48.918Z,5.57
2019-01-12T04:51:52.845Z,9.90
2019-01-12T04:53:56.697Z,9.33
2019-01-12T04:56:00.599Z,3.97
2019-01-12T04:58:04.462Z,10.20
2019-01-12T05:00:13.888Z,9.07
2019-01-12T05:04:27.251Z,9.27
2019-01-12T05:06:31.091Z,10.17
2019-01-12T05:08:35.005Z,6.83
2019-01-12T05:10:38.950Z,10.73
2019-01-12T05:12:42.819Z,6.87
2019-01-12T05:14:46.694Z,11.20
2019-01-12T05:16:50.569Z,12.67
2019-01-12T05:18:54.510Z,10.70
2019-01-12T05:20:58.334Z,6.23
2019-01-12T05:23:02.263Z,5.97
2019-01-12T05:25:06.820Z,7.70
2019-01-12T05:27:10.671Z,13.17
2019-01-12T05:29:14.625Z,8.83
2019-01-12T05:31:18.462Z,5.07
2019-01-12T05:33:22.358Z,7.93
2019-01-12T05:35:26.226Z,10.27
2019-01-12T05:37:30.106Z,7.70
2019-01-12T05:39:33.975Z,6.37
2019-01-12T05:41:37.847Z,11.40
2019-01-12T05:43:41.757Z,14.03
2019-01-12T05:45:45.657Z,8.07
2019-01-12T05:47:49.566Z,7.07
2019-01-12T05:49:54.298Z,6.43
2019-01-12T05:51:58.198Z,6.50
2019-01-12T05:54:02.094Z,5.33
2019-01-12T05:56:06.007Z,4.83
2019-01-12T05:58:09.949Z,9.60
2019-01-12T06:00:16.599Z,10.10
2019-01-12T06:02:20.535Z,4.83
2019-01-12T06:04:24.419Z,5.87
2019-01-12T06:06:28.343Z,7.10
2019-01-12T06:08:32.229Z,3.53
2019-01-12T06:10:36.160Z,7.77
2019-01-12T06:12:40.227Z,7.13
2019-01-12T06:14:44.339Z,3.80
2019-01-12T06:16:48.269Z,6.07
2019-01-12T06:18:52.395Z,4.73
2019-01-12T06:20:56.366Z,7.57
2019-01-12T06:23:00.220Z,3.63
2019-01-12T06:25:04.675Z,5.43
2019-01-12T06:27:08.564Z,6.63
2019-01-12T06:29:12.445Z,3.43
2019-01-12T06:31:16.299Z,7.10
2019-01-12T06:33:20.193Z,6.93
2019-01-12T06:35:24.050Z,5.50
2019-01-12T06:37:27.933Z,5.10
2019-01-12T06:39:31.813Z,6.67
2019-01-12T06:41:35.679Z,4.17
2019-01-12T06:43:39.571Z,8.03
2019-01-12T06:45:43.463Z,3.77
2019-01-12T06:47:47.308Z,4.10
2019-01-12T06:49:51.219Z,4.43
2019-01-12T06:51:55.058Z,5.90
2019-01-12T06:53:58.946Z,9.63
2019-01-12T06:56:02.839Z,4.17
2019-01-12T06:58:06.702Z,6.67
2019-01-12T07:00:13.696Z,4.13
2019-01-12T07:02:17.617Z,6.87
2019-01-12T07:04:21.456Z,8.53
2019-01-12T07:06:29.186Z,6.67
2019-01-12T07:08:35.089Z,10.43
2019-01-12T07:10:38.955Z,7.30
2019-01-12T07:12:42.801Z,5.57
2019-01-12T07:14:46.739Z,6.67
2019-01-12T07:16:50.590Z,5.23
2019-01-12T07:18:54.494Z,6.10
2019-01-12T07:20:58.388Z,7.13
2019-01-12T07:23:03.809Z,6.83
2019-01-12T07:25:10.881Z,8.53
2019-01-12T07:27:15.048Z,5.40
2019-01-12T07:29:18.934Z,8.90
2019-01-12T07:31:22.878Z,14.13
2019-01-12T07:33:26.741Z,8.57
2019-01-12T07:35:30.635Z,7.20
2019-01-12T07:37:34.558Z,6.93
2019-01-12T07:39:38.441Z,8.00
2019-01-12T07:41:42.287Z,7.23
2019-01-12T07:43:46.892Z,5.83
2019-01-12T07:45:55.505Z,7.27
2019-01-12T07:48:00.735Z,9.27
2019-01-12T07:50:09.449Z,10.57
2019-01-12T07:52:13.322Z,8.20
2019-01-12T07:54:20.031Z,10.03
2019-01-12T07:56:24.623Z,7.87
2019-01-12T07:58:28.769Z,15.40
2019-01-12T08:00:32.682Z,6.70
2019-01-12T08:02:36.537Z,13.00
2019-01-12T08:04:40.438Z,11.80
2019-01-12T08:06:44.810Z,8.13
2019-01-12T08:08:48.715Z,13.23
2019-01-12T08:10:52.572Z,11.40
2019-01-12T08:12:56.434Z,10.87
2019-01-12T08:15:01.678Z,6.53
2019-01-12T08:17:05.514Z,13.87
2019-01-12T08:19:09.382Z,8.80
2019-01-12T08:21:13.290Z,15.93
2019-01-12T08:23:19.186Z,8.30
2019-01-12T08:25:23.034Z,14.77
2019-01-12T08:27:26.947Z,11.63
2019-01-12T08:29:30.853Z,13.30
2019-01-12T08:31:34.722Z,11.07
2019-01-12T08:33:38.661Z,10.90
2019-01-12T08:35:42.526Z,12.47
2019-01-12T08:37:46.483Z,10.80
2019-01-12T08:39:50.301Z,9.57
2019-01-12T08:41:56.218Z,10.57
2019-01-12T08:44:00.204Z,10.87
2019-01-12T08:46:04.193Z,15.70
2019-01-12T08:48:11.444Z,11.63
2019-01-12T08:50:17.394Z,11.90
2019-01-12T08:52:24.927Z,11.60
2019-01-12T08:54:29.076Z,14.13
2019-01-12T08:56:38.275Z,14.37
2019-01-12T08:58:38.495Z,15.53
2019-01-12T09:00:42.385Z,18.30
2019-01-12T09:02:46.274Z,18.77
2019-01-12T09:04:50.079Z,10.60
2019-01-12T09:06:54.018Z,15.00
2019-01-12T09:08:57.883Z,18.40
2019-01-12T09:11:01.778Z,14.27
2019-01-12T09:13:05.681Z,16.60
2019-01-12T09:15:10.860Z,16.77
2019-01-12T09:17:14.790Z,15.30
2019-01-12T09:19:18.654Z,15.87
2019-01-12T09:21:22.497Z,14.43
2019-01-12T09:23:26.391Z,15.83
2019-01-12T09:25:30.259Z,18.27
2019-01-12T09:27:34.257Z,17.63
2019-01-12T09:29:38.118Z,13.60
2019-01-12T09:31:42.222Z,15.93
2019-01-12T09:33:46.151Z,18.33
2019-01-12T09:35:49.995Z,22.27
2019-01-12T09:37:53.897Z,19.27
2019-01-12T09:39:57.819Z,18.00
2019-01-12T09:42:01.700Z,21.17
2019-01-12T09:44:05.651Z,15.37
2019-01-12T09:46:09.586Z,22.07
2019-01-12T09:48:13.463Z,22.73
2019-01-12T09:50:18.778Z,20.30
2019-01-12T09:52:22.666Z,25.20
2019-01-12T09:54:26.503Z,22.27
2019-01-12T09:56:30.434Z,22.10
2019-01-12T09:58:34.291Z,19.90
2019-01-12T10:00:38.222Z,19.53
2019-01-12T10:02:42.136Z,23.07
2019-01-12T10:04:46.005Z,20.27
2019-01-12T10:06:53.951Z,22.97
2019-01-12T10:09:04.619Z,23.07
2019-01-12T10:11:15.308Z,20.57
2019-01-12T10:13:22.002Z,21.57
2019-01-12T10:15:26.009Z,23.20
2019-01-12T10:17:29.940Z,21.07
2019-01-12T10:19:33.946Z,22.93
2019-01-12T10:21:37.806Z,19.13
2019-01-12T10:23:41.706Z,19.07
2019-01-12T10:25:45.609Z,21.97
2019-01-12T10:27:49.465Z,18.40
2019-01-12T10:29:53.379Z,20.80
2019-01-12T10:31:57.268Z,18.63
2019-01-12T10:34:01.309Z,16.37
2019-01-12T10:36:05.954Z,20.40
2019-01-12T10:38:09.818Z,15.43
2019-01-12T10:40:16.446Z,22.47
2019-01-12T10:42:20.305Z,16.07
2019-01-12T10:44:24.172Z,19.87
2019-01-12T10:46:28.096Z,13.43
2019-01-12T10:48:31.946Z,15.17
2019-01-12T10:50:35.838Z,13.00
2019-01-12T10:52:39.691Z,17.13
2019-01-12T10:54:43.554Z,14.80
2019-01-12T10:56:47.550Z,13.47
2019-01-12T10:58:51.442Z,15.27
2019-01-12T11:00:55.340Z,12.40
2019-01-12T11:02:59.213Z,14.53
2019-01-12T11:05:03.067Z,13.07
2019-01-12T11:07:07.281Z,14.47
2019-01-12T11:09:11.140Z,11.73
2019-01-12T11:11:15.004Z,11.10
2019-01-12T11:13:18.911Z,10.57
2019-01-12T11:15:23.085Z,11.47
2019-01-12T11:17:27.006Z,10.87
2019-01-12T11:19:30.873Z,10.63
2019-01-12T11:21:34.735Z,7.93
2019-01-12T11:23:38.690Z,11.67
2019-01-12T11:25:43.258Z,11.70
2019-01-12T11:27:47.295Z,7.07
2019-01-12T11:29:51.281Z,8.90
2019-01-12T11:31:55.185Z,11.97
2019-01-12T11:33:59.037Z,6.50
2019-01-12T11:36:02.938Z,10.30
2019-01-12T11:38:06.939Z,8.43
2019-01-12T11:40:13.777Z,6.90
2019-01-12T11:42:17.619Z,6.93
2019-01-12T11:44:21.497Z,6.27
2019-01-12T11:46:25.362Z,8.30
2019-01-12T11:48:29.229Z,7.77
2019-01-12T11:50:33.117Z,8.33
2019-01-12T11:52:36.973Z,9.53
2019-01-12T11:54:40.800Z,7.83
2019-01-12T11:56:44.700Z,6.97
2019-01-12T11:58:48.567Z,9.03
2019-01-12T12:00:52.460Z,7.53
2019-01-12T12:02:56.411Z,7.80
2019-01-12T12:05:00.298Z,6.43
2019-01-12T12:07:04.485Z,6.50
2019-01-12T12:09:09.666Z,7.07
2019-01-12T12:11:13.542Z,6.27
2019-01-12T12:13:17.477Z,7.77
2019-01-12T12:15:22.273Z,9.47
2019-01-12T12:17:26.181Z,8.90
2019-01-12T12:19:30.058Z,7.33
2019-01-12T12:21:33.929Z,11.47
2019-01-12T12:23:37.803Z,11.47
2019-01-12T12:25:41.725Z,9.17
2019-01-12T12:27:45.834Z,10.63
2019-01-12T12:29:49.705Z,12.83
2019-01-12T12:31:53.598Z,19.20
2019-01-12T12:33:57.435Z,17.67
2019-01-12T12:36:01.328Z,16.63
2019-01-12T12:38:05.509Z,16.03
2019-01-12T12:40:12.649Z,15.93
2019-01-12T12:42:16.526Z,13.77
2019-01-12T12:44:20.451Z,14.50
2019-01-12T12:46:24.327Z,12.30
2019-01-12T12:48:28.187Z,16.20
2019-01-12T12:50:32.152Z,12.33
2019-01-12T12:52:36.019Z,20.57
2019-01-12T12:54:39.904Z,10.40
2019-01-12T12:56:43.754Z,19.77
2019-01-12T12:58:47.609Z,20.07
2019-01-12T13:00:51.523Z,10.97
2019-01-12T13:02:55.368Z,12.30
2019-01-12T13:04:59.237Z,10.37
2019-01-12T13:07:03.292Z,12.23
2019-01-12T13:09:08.250Z,12.53
2019-01-12T13:11:12.141Z,18.10
2019-01-12T13:13:16.033Z,13.83
2019-01-12T13:15:19.873Z,10.97
2019-01-12T13:17:23.766Z,16.27
2019-01-12T13:19:27.631Z,15.23
2019-01-12T13:21:31.492Z,17.40
2019-01-12T13:23:35.385Z,13.30
2019-01-12T13:25:39.232Z,18.30
2019-01-12T13:27:43.121Z,19.83
2019-01-12T13:29:47.064Z,20.80
2019-01-12T13:31:50.918Z,19.97
2019-01-12T13:33:54.799Z,28.10
2019-01-12T13:35:58.744Z,21.03
2019-01-12T13:38:02.582Z,31.23
2019-01-12T13:40:16.130Z,24.02
2019-01-12T13:42:19.982Z,23.13
2019-01-12T13:44:23.847Z,26.27
2019-01-12T13:46:27.741Z,21.07
2019-01-12T13:48:31.688Z,15.67
2019-01-12T13:50:35.540Z,29.17
2019-01-12T13:52:39.405Z,21.57
2019-01-12T13:54:43.326Z,19.60
2019-01-12T13:56:47.330Z,25.17
2019-01-12T13:58:51.203Z,19.47
2019-01-12T14:00:55.068Z,22.50
2019-01-12T14:02:59.525Z,24.73
2019-01-12T14:05:03.471Z,36.37
2019-01-12T14:07:07.354Z,27.47
2019-01-12T14:09:11.227Z,27.17
2019-01-12T14:11:15.085Z,15.97
2019-01-12T14:13:18.985Z,21.53
2019-01-12T14:15:23.071Z,24.57
2019-01-12T14:17:26.917Z,26.47
2019-01-12T14:19:30.867Z,22.43
2019-01-12T14:21:34.771Z,25.53
2019-01-12T14:23:38.637Z,24.57
2019-01-12T14:25:42.544Z,23.40
2019-01-12T14:27:46.378Z,26.57
2019-01-12T14:29:50.274Z,30.73
2019-01-12T14:31:54.173Z,24.50
2019-01-12T14:33:58.055Z,20.57
2019-01-12T14:36:01.902Z,24.97
2019-01-12T14:38:05.749Z,20.37
2019-01-12T14:40:15.155Z,21.23
2019-01-12T14:42:18.998Z,25.77
2019-01-12T14:44:22.861Z,17.03
2019-01-12T14:46:26.770Z,23.53
2019-01-12T14:48:30.649Z,23.53
2019-01-12T14:50:34.559Z,16.07
2019-01-12T14:52:38.535Z,13.33
2019-01-12T14:54:42.410Z,23.90
2019-01-12T14:56:46.290Z,23.13
2019-01-12T14:58:50.185Z,19.53
2019-01-12T15:00:54.092Z,28.93
2019-01-12T15:02:57.951Z,24.43
2019-01-12T15:05:01.811Z,19.40
2019-01-12T15:07:05.700Z,23.20
2019-01-12T15:09:09.620Z,18.43
2019-01-12T15:11:13.472Z,17.93
2019-01-12T15:13:17.409Z,18.50
2019-01-12T15:15:21.474Z,17.50
2019-01-12T15:17:25.310Z,16.80
2019-01-12T15:19:29.171Z,18.10
2019-01-12T15:21:33.114Z,30.30
2019-01-12T15:23:36.957Z,17.07
2019-01-12T15:25:40.836Z,19.63
2019-01-12T15:27:44.681Z,26.23
2019-01-12T15:29:48.590Z,14.87
2019-01-12T15:31:52.631Z,18.13
2019-01-12T15:33:56.484Z,19.90
2019-01-12T15:36:00.331Z,20.67
2019-01-12T15:38:04.218Z,20.43
2019-01-12T15:40:11.034Z,17.37
2019-01-12T15:42:14.922Z,21.23
2019-01-12T15:44:18.762Z,13.67
2019-01-12T15:46:22.687Z,19.30
2019-01-12T15:48:26.546Z,20.33
2019-01-12T15:50:30.431Z,22.53
2019-01-12T15:52:34.342Z,28.77
2019-01-12T15:54:38.285Z,14.13
2019-01-12T15:56:42.149Z,23.57
2019-01-12T15:58:46.048Z,19.17
2019-01-12T16:00:50.007Z,24.63
2019-01-12T16:02:53.986Z,20.33
2019-01-12T16:04:57.859Z,18.57
2019-01-12T16:07:01.706Z,16.80
2019-01-12T16:09:07.167Z,19.23
2019-01-12T16:11:11.058Z,20.53
2019-01-12T16:13:14.956Z,17.47
2019-01-12T16:15:21.164Z,15.40
2019-01-12T16:17:25.026Z,16.40
2019-01-12T16:19:28.890Z,13.87
2019-01-12T16:21:32.778Z,25.17
2019-01-12T16:23:36.643Z,21.67
2019-01-12T16:25:40.541Z,19.53
2019-01-12T16:27:44.400Z,22.87
2019-01-12T16:29:48.351Z,23.13
2019-01-12T16:31:52.238Z,19.13
2019-01-12T16:33:56.094Z,20.63
2019-01-12T16:36:00.148Z,18.53
2019-01-12T16:38:04.398Z,21.47
2019-01-12T16:40:11.194Z,17.87
2019-01-12T16:42:15.124Z,26.70
2019-01-12T16:44:18.989Z,16.63
2019-01-12T16:46:22.995Z,18.83
2019-01-12T16:48:26.853Z,21.30
2019-01-12T16:50:30.760Z,19.93
2019-01-12T16:52:34.688Z,21.53
2019-01-12T16:54:38.559Z,35.00
2019-01-12T16:56:42.482Z,15.43
2019-01-12T16:58:46.336Z,24.50
2019-01-12T17:00:50.409Z,16.00
2019-01-12T17:02:54.426Z,18.80
2019-01-12T17:04:58.295Z,23.00
2019-01-12T17:07:02.175Z,19.77
2019-01-12T17:09:08.431Z,17.33
2019-01-12T17:11:12.269Z,26.97
2019-01-12T17:13:16.160Z,14.87
2019-01-12T17:15:21.621Z,26.13
2019-01-12T17:17:25.487Z,15.00
2019-01-12T17:19:29.962Z,24.97
2019-01-12T17:21:33.775Z,19.63
2019-01-12T17:23:37.634Z,15.03
2019-01-12T17:25:41.505Z,19.50
2019-01-12T17:27:45.422Z,16.90
2019-01-12T17:29:49.254Z,22.90
2019-01-12T17:31:53.114Z,16.07
2019-01-12T17:33:56.998Z,19.20
2019-01-12T17:36:00.878Z,18.93
2019-01-12T17:38:05.073Z,23.60
2019-01-12T17:40:11.830Z,13.27
2019-01-12T17:42:15.730Z,18.50
2019-01-12T17:44:19.632Z,18.17
2019-01-12T17:46:23.494Z,27.10
2019-01-12T17:48:27.410Z,26.97
2019-01-12T17:50:31.316Z,13.67
2019-01-12T17:52:35.162Z,17.30
2019-01-12T17:54:39.037Z,16.77
2019-01-12T17:56:42.919Z,24.43
2019-01-12T17:58:46.809Z,23.10
2019-01-12T18:00:50.746Z,23.60
2019-01-12T18:02:54.822Z,16.30
2019-01-12T18:04:58.675Z,21.03
2019-01-12T18:07:02.605Z,16.27
2019-01-12T18:09:06.750Z,20.73
2019-01-12T18:11:10.649Z,16.27
2019-01-12T18:13:14.546Z,24.33
2019-01-12T18:15:18.441Z,22.37
2019-01-12T18:17:22.373Z,18.03
2019-01-12T18:19:26.223Z,25.30
2019-01-12T18:21:30.267Z,16.00
2019-01-12T18:23:34.112Z,21.07
2019-01-12T18:25:38.047Z,18.50
2019-01-12T18:27:42.199Z,24.53
2019-01-12T18:29:46.066Z,22.03
2019-01-12T18:31:49.960Z,23.00
2019-01-12T18:33:53.831Z,15.57
2019-01-12T18:35:57.690Z,18.47
2019-01-12T18:38:01.718Z,18.27
2019-01-12T18:40:08.768Z,19.50
2019-01-12T18:42:12.626Z,23.60
2019-01-12T18:44:16.549Z,15.37
2019-01-12T18:46:20.425Z,22.73
2019-01-12T18:48:24.348Z,17.27
2019-01-12T18:50:28.450Z,17.47
2019-01-12T18:52:32.277Z,16.87
2019-01-12T18:54:36.200Z,19.00
2019-01-12T18:56:40.221Z,22.47
2019-01-12T18:58:44.082Z,24.13
2019-01-12T19:00:47.958Z,23.00
2019-01-12T19:02:51.833Z,19.57
2019-01-12T19:04:55.721Z,15.23
2019-01-12T19:06:59.567Z,14.63
2019-01-12T19:09:07.286Z,14.47
2019-01-12T19:11:11.124Z,16.33
2019-01-12T19:13:15.003Z,23.57
2019-01-12T19:15:24.378Z,20.30
2019-01-12T19:17:28.242Z,15.23
2019-01-12T19:19:32.170Z,16.47
2019-01-12T19:21:36.009Z,16.77
2019-01-12T19:23:39.890Z,21.73
2019-01-12T19:25:43.798Z,27.10
2019-01-12T19:27:47.663Z,18.37
2019-01-12T19:29:51.528Z,18.80
2019-01-12T19:31:55.452Z,24.50
2019-01-12T19:33:59.310Z,20.17
2019-01-12T19:36:03.205Z,17.60
2019-01-12T19:38:07.118Z,33.27
2019-01-12T19:40:16.159Z,24.47
2019-01-12T19:42:20.047Z,15.00
2019-01-12T19:44:23.943Z,20.37
2019-01-12T19:46:27.846Z,19.60
2019-01-12T19:48:31.834Z,21.07
2019-01-12T19:50:35.678Z,21.20
2019-01-12T19:52:41.602Z,18.73
2019-01-12T19:54:46.345Z,20.53
2019-01-12T19:56:50.270Z,18.50
2019-01-12T19:58:54.294Z,23.97
2019-01-12T20:00:58.201Z,21.67
2019-01-12T20:03:02.084Z,24.37
2019-01-12T20:05:07.408Z,19.73
2019-01-12T20:07:11.293Z,18.80
2019-01-12T20:09:15.155Z,23.47
2019-01-12T20:11:19.047Z,19.80
2019-01-12T20:13:22.887Z,27.57
2019-01-12T20:15:26.850Z,26.70
2019-01-12T20:17:30.694Z,23.70
2019-01-12T20:19:34.600Z,24.47
2019-01-12T20:21:38.607Z,20.87
2019-01-12T20:23:42.447Z,24.57
2019-01-12T20:25:46.301Z,30.27
2019-01-12T20:27:50.265Z,21.70
2019-01-12T20:29:54.110Z,17.57
2019-01-12T20:32:12.981Z,26.37
2019-01-12T20:34:19.778Z,21.67
2019-01-12T20:36:47.964Z,31.17
2019-01-12T20:39:04.401Z,26.07
2019-01-12T20:41:19.895Z,22.50
2019-01-12T20:43:29.490Z,18.10
2019-01-12T20:46:00.687Z,19.83
2019-01-12T20:48:22.406Z,17.37
2019-01-12T20:50:32.093Z,17.10
2019-01-12T20:52:38.896Z,19.73
2019-01-12T20:54:57.992Z,25.50
2019-01-12T20:57:07.630Z,15.00
2019-01-12T20:59:29.364Z,19.67
2019-01-12T21:01:55.815Z,26.53
2019-01-12T21:04:08.723Z,23.57
2019-01-12T21:06:35.150Z,35.17
2019-01-12T21:09:05.162Z,18.73
2019-01-12T21:11:15.207Z,19.63
2019-01-12T21:13:46.173Z,27.43
2019-01-12T21:15:53.200Z,19.83
2019-01-12T21:17:57.183Z,22.27
2019-01-12T21:20:01.598Z,27.80
2019-01-12T21:22:05.501Z,20.47
2019-01-12T21:24:11.957Z,16.13
2019-01-12T21:26:16.836Z,18.93
2019-01-12T21:28:20.746Z,20.33
2019-01-12T21:30:25.426Z,20.97
2019-01-12T21:32:29.312Z,25.47
2019-01-12T21:34:33.154Z,22.50
2019-01-12T21:36:37.055Z,21.87
2019-01-12T21:38:41.053Z,18.63
2019-01-12T21:40:44.925Z,30.70
2019-01-12T21:42:48.776Z,21.37
2019-01-12T21:44:52.694Z,24.30
2019-01-12T21:46:56.562Z,22.43
2019-01-12T21:49:02.745Z,26.37
2019-01-12T21:51:06.627Z,24.20
2019-01-12T21:53:12.065Z,17.23
2019-01-12T21:55:15.977Z,26.00
2019-01-12T21:57:19.882Z,24.97
2019-01-12T21:59:24.549Z,20.90
2019-01-12T22:01:28.689Z,17.33
2019-01-12T22:03:32.567Z,23.77
2019-01-12T22:06:00.266Z,27.23
2019-01-12T22:08:04.723Z,23.43
2019-01-12T22:10:19.058Z,20.17
2019-01-12T22:12:19.855Z,17.90
2019-01-12T22:14:23.709Z,25.13
2019-01-12T22:16:27.542Z,19.20
2019-01-12T22:18:31.450Z,19.93
2019-01-12T22:20:35.258Z,24.73
2019-01-12T22:22:40.561Z,17.67
2019-01-12T22:24:44.719Z,31.60
2019-01-12T22:26:48.621Z,21.97
2019-01-12T22:28:54.744Z,26.60
2019-01-12T22:30:58.651Z,30.50
2019-01-12T22:33:02.689Z,17.10
2019-01-12T22:35:06.818Z,37.53
2019-01-12T22:37:10.681Z,32.20
2019-01-12T22:39:14.516Z,23.43
2019-01-12T22:41:18.413Z,24.43
2019-01-12T22:43:22.298Z,20.73
2019-01-12T22:45:26.149Z,25.43
2019-01-12T22:47:29.934Z,23.00
2019-01-12T22:49:33.764Z,31.77
2019-01-12T22:51:37.592Z,23.30
2019-01-12T22:53:41.436Z,17.40
2019-01-12T22:55:45.268Z,19.17
2019-01-12T22:57:49.134Z,24.73
2019-01-12T22:59:56.908Z,25.83
2019-01-12T23:01:58.642Z,19.50
2019-01-12T23:04:02.547Z,27.70
2019-01-12T23:06:06.360Z,28.20
2019-01-12T23:08:10.261Z,22.17
2019-01-12T23:10:14.046Z,21.83
2019-01-12T23:12:17.932Z,17.73
2019-01-12T23:14:21.960Z,23.80
2019-01-12T23:16:25.741Z,27.20
2019-01-12T23:18:29.577Z,24.30
2019-01-12T23:20:33.454Z,22.70
2019-01-12T23:22:37.318Z,22.97
2019-01-12T23:24:41.185Z,20.53
2019-01-12T23:26:45.041Z,22.43
2019-01-12T23:28:48.861Z,26.77
2019-01-12T23:30:52.725Z,18.27
2019-01-12T23:32:56.561Z,15.17
2019-01-12T23:35:00.400Z,19.33
2019-01-12T23:37:04.605Z,27.07
2019-01-12T23:39:09.229Z,17.27
2019-01-12T23:41:13.121Z,16.10
2019-01-12T23:43:16.980Z,20.40
2019-01-12T23:45:20.856Z,19.67
2019-01-12T23:47:24.741Z,18.50
2019-01-12T23:49:28.582Z,20.07
2019-01-12T23:51:32.437Z,19.90
2019-01-12T23:53:36.354Z,25.63
2019-01-12T23:55:40.106Z,21.50
2019-01-12T23:57:44.079Z,19.83
2019-01-12T23:59:47.922Z,18.13
